Terminal Aerodrome Forecast
Issued by NWS

Home | Current Version | Previous Version | Text Only | Print | Product List | Glossary On
Versions: 1 2 3 4 5 6 7 8 9 10 11 12
000
FTUS46 KSTO 021100
TAFSAC
TAF
KSAC 021140Z 0212/0312 19005KT P6SM SKC
     FM021900 22009KT P6SM SKC
     FM022300 20014KT P6SM SKC
     FM030500 18009KT P6SM SKC=

USA.gov is the U.S. government's official web portal to all federal, state and local government web resources and services.